createdAt,value
2022-12-03T00:01:47.220Z,101032.75
2022-12-03T00:04:15.835Z,101029.31
2022-12-03T00:06:44.355Z,101035.34
2022-12-03T00:09:12.868Z,101032.75
2022-12-03T00:11:41.684Z,101031.88
2022-12-03T00:14:11.291Z,101037.06
2022-12-03T00:16:39.842Z,101037.88
2022-12-03T00:19:08.300Z,101034.44
2022-12-03T00:21:36.887Z,101038.75
2022-12-03T00:24:05.508Z,101027.53
2022-12-03T00:26:34.095Z,101024.06
2022-12-03T00:29:02.594Z,101025.75
2022-12-03T00:31:32.244Z,101030.97
2022-12-03T00:34:00.565Z,101031.81
2022-12-03T00:36:29.085Z,101027.47
2022-12-03T00:38:57.568Z,101034.38
2022-12-03T00:41:26.079Z,101028.34
2022-12-03T00:43:57.469Z,101017.13
2022-12-03T00:46:26.375Z,101032.66
2022-12-03T00:48:56.311Z,101018.81
2022-12-03T00:51:24.616Z,101017.09
2022-12-03T00:53:53.182Z,101014.50
2022-12-03T00:56:21.708Z,101009.31
2022-12-03T00:58:51.619Z,101017.09
2022-12-03T01:01:20.311Z,101017.09
2022-12-03T01:03:48.843Z,101017.09
2022-12-03T01:06:18.733Z,101024.84
2022-12-03T01:08:47.288Z,101025.69
2022-12-03T01:11:29.705Z,101022.22
2022-12-03T01:13:58.358Z,101027.41
2022-12-03T01:16:26.895Z,101025.63
2022-12-03T01:18:55.457Z,101029.09
2022-12-03T01:21:25.096Z,101025.63
2022-12-03T01:23:53.710Z,101030.81
2022-12-03T01:26:22.411Z,101033.41
2022-12-03T01:28:50.991Z,101027.41
2022-12-03T01:31:37.095Z,101041.22
2022-12-03T01:34:05.819Z,101034.31
2022-12-03T01:36:35.422Z,101035.16
2022-12-03T01:39:04.848Z,101030.00
2022-12-03T01:41:34.526Z,101030.84
2022-12-03T01:44:04.081Z,101036.03
2022-12-03T01:46:39.663Z,101036.03
2022-12-03T01:49:14.835Z,101026.53
2022-12-03T01:51:44.692Z,101032.56
2022-12-03T01:54:19.154Z,101031.72
2022-12-03T01:56:48.396Z,101033.44
2022-12-03T01:59:20.052Z,101030.81
2022-12-03T02:01:48.681Z,101034.31
2022-12-03T02:04:20.688Z,101032.63
2022-12-03T02:06:50.451Z,101039.53
2022-12-03T02:09:19.911Z,101032.63
2022-12-03T02:11:51.532Z,101037.84
2022-12-03T02:14:22.676Z,101039.56
2022-12-03T02:16:51.015Z,101042.16
2022-12-03T02:19:27.634Z,101035.25
2022-12-03T02:22:06.619Z,101046.47
2022-12-03T02:24:44.690Z,101041.31
2022-12-03T02:27:14.362Z,101037.88
2022-12-03T02:29:42.599Z,101037.03
2022-12-03T02:32:11.075Z,101042.19
2022-12-03T02:34:42.867Z,101033.56
2022-12-03T02:37:16.276Z,101030.13
2022-12-03T02:39:51.277Z,101037.03
2022-12-03T02:42:37.134Z,101037.88
2022-12-03T02:45:11.895Z,101038.72
2022-12-03T02:47:43.983Z,101034.44
2022-12-03T02:50:16.102Z,101034.44
2022-12-03T02:52:47.462Z,101031.88
2022-12-03T02:55:18.188Z,101032.75
2022-12-03T02:57:51.201Z,101036.22
2022-12-03T03:00:20.863Z,101032.78
2022-12-03T03:02:50.606Z,101031.94
2022-12-03T03:05:22.987Z,101037.16
2022-12-03T03:07:52.702Z,101034.56
2022-12-03T03:10:24.279Z,101030.25
2022-12-03T03:12:56.468Z,101033.75
2022-12-03T03:15:25.457Z,101032.91
2022-12-03T03:17:54.091Z,101034.66
2022-12-03T03:20:22.684Z,101036.41
2022-12-03T03:22:51.210Z,101031.22
2022-12-03T03:25:22.423Z,101029.50
2022-12-03T03:27:51.195Z,101034.69
2022-12-03T03:30:20.924Z,101032.09
2022-12-03T03:32:49.521Z,101032.09
2022-12-03T03:35:18.090Z,101026.94
2022-12-03T03:37:46.825Z,101029.53
2022-12-03T03:40:15.489Z,101034.72
2022-12-03T03:42:44.342Z,101029.59
2022-12-03T03:45:12.807Z,101028.72
2022-12-03T03:47:43.538Z,101031.34
2022-12-03T03:50:13.877Z,101027.91
2022-12-03T03:52:43.082Z,101020.13
2022-12-03T03:55:12.675Z,101021.00
2022-12-03T03:57:41.433Z,101026.16
2022-12-03T04:00:11.330Z,101021.84
2022-12-03T04:02:39.911Z,101022.72
2022-12-03T04:05:16.903Z,101021.84
2022-12-03T04:07:45.395Z,101023.56
2022-12-03T04:10:33.291Z,101021.00
2022-12-03T04:13:02.077Z,101017.50
2022-12-03T04:15:30.735Z,101016.63
2022-12-03T04:18:16.945Z,101014.91
2022-12-03T04:20:46.576Z,101017.50
2022-12-03T04:23:14.166Z,101019.22
2022-12-03T04:26:02.367Z,101013.22
2022-12-03T04:28:48.814Z,101013.19
2022-12-03T04:31:31.263Z,101014.91
2022-12-03T04:34:17.438Z,101014.03
2022-12-03T04:36:47.692Z,101006.22
2022-12-03T04:39:16.229Z,101012.28
2022-12-03T04:41:44.747Z,101003.66
2022-12-03T04:44:30.545Z,101013.13
2022-12-03T04:46:58.850Z,101011.41
2022-12-03T04:49:27.461Z,101005.38
2022-12-03T04:51:57.279Z,101007.09
2022-12-03T04:54:25.838Z,101006.22
2022-12-03T04:56:54.358Z,101007.09
2022-12-03T04:59:23.018Z,101007.09
2022-12-03T05:01:51.721Z,101006.22
2022-12-03T05:04:20.345Z,101001.88
2022-12-03T05:06:48.735Z,101003.59
2022-12-03T05:09:18.310Z,101002.75
2022-12-03T05:11:47.162Z,101005.38
2022-12-03T05:14:15.675Z,101004.47
2022-12-03T05:16:44.190Z,101001.00
2022-12-03T05:19:12.703Z,100998.44
2022-12-03T05:21:40.314Z,100992.38
2022-12-03T05:24:09.226Z,100999.28
2022-12-03T05:26:38.846Z,100995.84
2022-12-03T05:29:07.370Z,101001.88
2022-12-03T05:31:36.826Z,100997.56
2022-12-03T05:34:05.914Z,101000.19
2022-12-03T05:36:34.457Z,101001.06
2022-12-03T05:39:02.955Z,100999.28
2022-12-03T05:41:48.857Z,101001.88
2022-12-03T05:44:20.703Z,100995.84
2022-12-03T05:46:49.493Z,101005.31
2022-12-03T05:49:17.972Z,101004.44
2022-12-03T05:51:46.507Z,100996.66
2022-12-03T05:54:15.015Z,100994.94
2022-12-03T05:56:58.761Z,100998.38
2022-12-03T05:59:28.474Z,100997.53
2022-12-03T06:01:57.009Z,100997.53
2022-12-03T06:04:25.587Z,100990.56
2022-12-03T06:06:53.836Z,100990.56
2022-12-03T06:09:22.383Z,100994.88
2022-12-03T06:11:54.000Z,100990.53
2022-12-03T06:14:22.398Z,100985.31
2022-12-03T06:16:52.003Z,100987.91
2022-12-03T06:19:20.535Z,100992.19
2022-12-03T06:21:49.014Z,100984.41
2022-12-03T06:24:17.573Z,100983.50
2022-12-03T06:26:46.191Z,100982.66
2022-12-03T06:29:14.424Z,100986.97
2022-12-03T06:31:43.032Z,100972.25
2022-12-03T06:34:12.760Z,100977.44
2022-12-03T06:36:41.225Z,100980.00
2022-12-03T06:39:09.822Z,100970.47
2022-12-03T06:41:38.372Z,100975.66
2022-12-03T06:44:07.152Z,100979.06
2022-12-03T06:46:36.149Z,100973.91
2022-12-03T06:49:04.846Z,100968.69
2022-12-03T06:51:34.431Z,100972.13
2022-12-03T06:54:03.470Z,100970.41
2022-12-03T06:56:36.831Z,100973.78
2022-12-03T06:59:06.057Z,100971.09
2022-12-03T07:01:34.736Z,100979.69
2022-12-03T07:04:03.448Z,100970.16
2022-12-03T07:06:31.655Z,100976.13
2022-12-03T07:09:01.310Z,100978.66
2022-12-03T07:11:32.922Z,100982.91
2022-12-03T07:14:05.660Z,100990.59
2022-12-03T07:16:34.947Z,100991.44
2022-12-03T07:19:03.872Z,100998.31
2022-12-03T07:21:32.457Z,100997.38
2022-12-03T07:24:02.218Z,101000.78
2022-12-03T07:26:30.944Z,101000.78
2022-12-03T07:29:00.035Z,101005.97
2022-12-03T07:31:28.778Z,101015.50
2022-12-03T07:33:57.587Z,101010.38
2022-12-03T07:36:26.089Z,101015.59
2022-12-03T07:38:54.603Z,101009.59
2022-12-03T07:41:24.487Z,101010.50
2022-12-03T07:43:53.651Z,101009.75
2022-12-03T07:46:22.353Z,101006.38
2022-12-03T07:48:51.360Z,101009.88
2022-12-03T07:51:19.915Z,101007.38
2022-12-03T07:53:48.108Z,100996.25
2022-12-03T07:56:16.639Z,100999.75
2022-12-03T07:58:46.214Z,100994.59
2022-12-03T08:01:14.755Z,100999.88
2022-12-03T08:03:43.875Z,100984.34
2022-12-03T08:06:12.538Z,100993.03
2022-12-03T08:08:41.195Z,101004.28
2022-12-03T08:11:14.720Z,101001.72
2022-12-03T08:13:43.325Z,101005.22
2022-12-03T08:16:18.533Z,101004.34
2022-12-03T08:18:48.343Z,101012.19
2022-12-03T08:21:19.496Z,101014.00
2022-12-03T08:23:48.240Z,101007.13
2022-12-03T08:26:23.573Z,101010.63
2022-12-03T08:28:52.399Z,101015.84
2022-12-03T08:31:32.372Z,101008.94
2022-12-03T08:34:17.694Z,101007.25
2022-12-03T08:36:46.772Z,101006.47
2022-12-03T08:39:30.577Z,101003.03
2022-12-03T08:42:28.208Z,101004.00
2022-12-03T08:44:56.818Z,101000.66
2022-12-03T08:47:26.824Z,100993.78
2022-12-03T08:49:59.862Z,100999.91
2022-12-03T08:52:33.626Z,100998.22
2022-12-03T08:55:21.213Z,100992.22
2022-12-03T08:57:49.562Z,101007.88
2022-12-03T09:00:23.992Z,101006.16
2022-12-03T09:03:00.501Z,101007.06
2022-12-03T09:05:32.617Z,101007.09
2022-12-03T09:08:01.695Z,101008.03
2022-12-03T09:10:30.399Z,101008.00
2022-12-03T09:12:59.065Z,101004.59
2022-12-03T09:15:28.302Z,101002.06
2022-12-03T09:17:57.959Z,100988.31
2022-12-03T09:20:26.491Z,100992.69
2022-12-03T09:22:55.056Z,100982.41
2022-12-03T09:25:23.641Z,100982.50
2022-12-03T09:27:52.200Z,100975.63
2022-12-03T09:30:20.800Z,100976.53
2022-12-03T09:32:49.425Z,100975.72
2022-12-03T09:35:19.284Z,100974.09
2022-12-03T09:37:47.855Z,100972.41
2022-12-03T09:40:16.731Z,100975.06
2022-12-03T09:42:45.801Z,100976.81
2022-12-03T09:45:16.252Z,100976.81
2022-12-03T09:47:48.682Z,100981.16
2022-12-03T09:50:23.671Z,100964.69
2022-12-03T09:52:54.838Z,100979.41
2022-12-03T09:55:26.875Z,100977.69
2022-12-03T09:57:56.792Z,100975.94
2022-12-03T10:00:28.212Z,100976.81
2022-12-03T10:03:02.433Z,100975.09
2022-12-03T10:05:33.160Z,100971.63
2022-12-03T10:08:07.824Z,100963.84
2022-12-03T10:10:36.569Z,100969.03
2022-12-03T10:13:05.776Z,100967.31
2022-12-03T10:15:34.740Z,100957.78
2022-12-03T10:18:16.812Z,100958.63
2022-12-03T10:20:47.004Z,100952.59
2022-12-03T10:23:23.191Z,100952.59
2022-12-03T10:25:56.914Z,100945.66
2022-12-03T10:28:32.668Z,100947.41
2022-12-03T10:31:03.106Z,100943.09
2022-12-03T10:33:36.855Z,100931.84
2022-12-03T10:36:23.258Z,100924.94
2022-12-03T10:39:10.459Z,100920.63
2022-12-03T10:41:39.621Z,100919.75
2022-12-03T10:44:19.256Z,100918.91
2022-12-03T10:47:07.553Z,100911.13
2022-12-03T10:49:36.307Z,100906.78
2022-12-03T10:52:07.270Z,100908.53
2022-12-03T10:54:36.775Z,100899.00
2022-12-03T10:57:05.437Z,100899.91
2022-12-03T10:59:35.952Z,100899.03
2022-12-03T11:02:08.959Z,100899.03
2022-12-03T11:04:38.048Z,100899.88
2022-12-03T11:07:16.057Z,100897.28
2022-12-03T11:09:46.989Z,100894.69
2022-12-03T11:12:21.963Z,100888.63
2022-12-03T11:15:08.187Z,100878.19
2022-12-03T11:17:49.874Z,100881.63
2022-12-03T11:21:08.175Z,100872.06
2022-12-03T11:24:21.774Z,100855.34
2022-12-03T11:27:22.915Z,100855.94
2022-12-03T11:29:58.562Z,100847.88
2022-12-03T11:33:21.591Z,100845.25
2022-12-03T11:36:31.619Z,100852.28
2022-12-03T11:39:05.327Z,100854.06
2022-12-03T11:41:36.374Z,100852.38
2022-12-03T11:44:33.651Z,100848.09
2022-12-03T11:47:14.892Z,100849.88
2022-12-03T11:49:49.014Z,100855.94
2022-12-03T11:52:29.441Z,100840.25
2022-12-03T11:55:14.248Z,100836.69
2022-12-03T11:57:44.328Z,100840.97
2022-12-03T12:00:21.773Z,100840.03
2022-12-03T12:02:51.218Z,100825.22
2022-12-03T12:05:29.852Z,100826.13
2022-12-03T12:07:58.688Z,100826.97
2022-12-03T12:10:42.052Z,100826.16
2022-12-03T12:13:56.695Z,100818.34
2022-12-03T12:16:50.503Z,100821.03
2022-12-03T12:19:39.826Z,100815.97
2022-12-03T12:22:31.199Z,100817.75
2022-12-03T12:25:01.333Z,100829.13
2022-12-03T12:27:37.411Z,100816.16
2022-12-03T12:30:13.731Z,100818.81
2022-12-03T12:32:47.772Z,100811.06
2022-12-03T12:35:20.850Z,100805.91
2022-12-03T12:37:58.912Z,100802.47
2022-12-03T12:40:30.906Z,100802.50
2022-12-03T12:43:06.833Z,100803.41
2022-12-03T12:45:43.552Z,100799.09
2022-12-03T12:48:22.066Z,100802.59
2022-12-03T12:51:00.536Z,100800.00
2022-12-03T12:53:32.568Z,100790.50
2022-12-03T12:56:02.955Z,100793.97
2022-12-03T12:58:34.150Z,100794.84
2022-12-03T13:01:12.077Z,100788.78
2022-12-03T13:03:41.183Z,100794.03
2022-12-03T13:06:15.463Z,100794.84
2022-12-03T13:08:48.155Z,100790.56
2022-12-03T13:11:35.309Z,100795.75
2022-12-03T13:14:13.613Z,100787.06
2022-12-03T13:16:43.479Z,100794.03
2022-12-03T13:19:23.532Z,100788.84
2022-12-03T13:21:53.493Z,100790.56
2022-12-03T13:24:35.101Z,100790.59
2022-12-03T13:27:22.869Z,100785.41
2022-12-03T13:29:56.263Z,100777.59
2022-12-03T13:32:32.466Z,100785.41
2022-12-03T13:35:05.707Z,100789.75
2022-12-03T13:37:34.583Z,100781.97
2022-12-03T13:40:27.895Z,100780.22
2022-12-03T13:42:55.272Z,100769.81
2022-12-03T13:45:36.059Z,100773.28
2022-12-03T13:48:19.714Z,100775.91
2022-12-03T13:50:48.299Z,100775.03
2022-12-03T13:53:22.882Z,100778.50
2022-12-03T13:55:52.907Z,100768.09
2022-12-03T13:58:21.395Z,100771.56
2022-12-03T14:00:50.037Z,100769.84
2022-12-03T14:03:19.871Z,100768.94
2022-12-03T14:05:48.436Z,100767.25
2022-12-03T14:08:17.137Z,100775.03
2022-12-03T14:10:45.471Z,100775.91
2022-12-03T14:13:13.957Z,100775.03
2022-12-03T14:15:42.217Z,100772.44
2022-12-03T14:18:11.651Z,100761.16
2022-12-03T14:20:41.221Z,100766.38
2022-12-03T14:23:09.719Z,100772.44
2022-12-03T14:25:38.228Z,100764.66
2022-12-03T14:28:08.588Z,100762.03
2022-12-03T14:30:37.139Z,100770.72
2022-12-03T14:33:05.723Z,100762.03
2022-12-03T14:35:34.292Z,100759.47
2022-12-03T14:38:03.896Z,100765.50
2022-12-03T14:40:32.562Z,100764.66
2022-12-03T14:43:01.043Z,100768.09
2022-12-03T14:45:29.989Z,100762.91
2022-12-03T14:47:58.666Z,100768.09
2022-12-03T14:50:27.425Z,100780.25
2022-12-03T14:52:56.048Z,100771.56
2022-12-03T14:55:25.833Z,100775.88
2022-12-03T14:57:54.414Z,100776.78
2022-12-03T15:00:23.746Z,100780.25
2022-12-03T15:02:52.333Z,100781.97
2022-12-03T15:05:27.937Z,100785.44
2022-12-03T15:07:57.436Z,100785.44
2022-12-03T15:10:27.015Z,100787.16
2022-12-03T15:12:55.543Z,100784.53
2022-12-03T15:15:24.050Z,100784.56
2022-12-03T15:17:52.547Z,100781.06
2022-12-03T15:20:21.024Z,100787.16
2022-12-03T15:22:49.549Z,100783.66
2022-12-03T15:25:24.232Z,100782.81
2022-12-03T15:27:53.939Z,100776.75
2022-12-03T15:30:22.422Z,100787.13
2022-12-03T15:32:50.950Z,100784.53
2022-12-03T15:35:19.466Z,100783.66
2022-12-03T15:37:48.050Z,100780.16
2022-12-03T15:40:16.800Z,100781.03
2022-12-03T15:42:45.347Z,100787.09
2022-12-03T15:45:15.505Z,100782.78
2022-12-03T15:47:44.440Z,100786.22
2022-12-03T15:50:14.139Z,100786.22
2022-12-03T15:52:42.719Z,100777.56
2022-12-03T15:55:11.396Z,100782.75
2022-12-03T15:57:40.215Z,100781.00
2022-12-03T16:00:12.040Z,100780.13
2022-12-03T16:02:52.198Z,100769.75
2022-12-03T16:05:21.275Z,100781.88
2022-12-03T16:07:50.069Z,100785.31
2022-12-03T16:10:21.341Z,100778.38
2022-12-03T16:12:50.182Z,100782.72
2022-12-03T16:15:22.230Z,100782.69
2022-12-03T16:17:56.286Z,100771.41
2022-12-03T16:20:24.541Z,100778.38
2022-12-03T16:22:53.187Z,100775.75
2022-12-03T16:25:21.856Z,100767.97
2022-12-03T16:27:50.129Z,100774.88
2022-12-03T16:30:18.988Z,100773.16
2022-12-03T16:32:47.501Z,100775.72
2022-12-03T16:35:17.391Z,100778.34
2022-12-03T16:37:45.863Z,100778.34
2022-12-03T16:40:14.507Z,100781.78
2022-12-03T16:42:43.010Z,100777.44
2022-12-03T16:45:33.837Z,100784.34
2022-12-03T16:48:02.920Z,100778.31
2022-12-03T16:50:32.679Z,100776.56
2022-12-03T16:53:01.242Z,100773.97
2022-12-03T16:55:29.714Z,100769.66
2022-12-03T16:57:58.294Z,100764.44
2022-12-03T17:00:26.735Z,100763.59
2022-12-03T17:02:55.438Z,100773.09
2022-12-03T17:05:24.101Z,100769.66
2022-12-03T17:07:53.892Z,100762.72
2022-12-03T17:10:22.509Z,100758.38
2022-12-03T17:15:40.202Z,100754.03
2022-12-03T17:18:09.396Z,100750.56
2022-12-03T17:20:37.964Z,100745.38
2022-12-03T17:23:07.609Z,100750.56
2022-12-03T17:25:35.964Z,100749.72
2022-12-03T17:28:04.649Z,100749.72
2022-12-03T17:30:33.193Z,100748.84
2022-12-03T17:33:01.677Z,100757.50
2022-12-03T17:35:30.488Z,100754.00
2022-12-03T17:37:59.004Z,100745.38
2022-12-03T17:40:28.602Z,100744.53
2022-12-03T17:42:57.063Z,100747.13
2022-12-03T17:45:27.732Z,100757.50
2022-12-03T17:47:56.241Z,100748.81
2022-12-03T17:50:26.599Z,100756.59
2022-12-03T17:52:55.096Z,100748.84
2022-12-03T17:55:32.081Z,100741.03
2022-12-03T17:58:06.092Z,100749.69
2022-12-03T18:00:34.994Z,100740.16
2022-12-03T18:03:03.293Z,100744.50
2022-12-03T18:05:31.954Z,100748.81
2022-12-03T18:08:00.503Z,100737.56
2022-12-03T18:10:29.071Z,100737.56
2022-12-03T18:13:01.621Z,100734.97
2022-12-03T18:15:33.093Z,100743.63
2022-12-03T18:18:02.462Z,100739.31
2022-12-03T18:20:31.131Z,100735.84
2022-12-03T18:23:00.426Z,100741.91
2022-12-03T18:25:29.347Z,100738.44
2022-12-03T18:27:57.759Z,100729.78
2022-12-03T18:30:26.343Z,100733.25
2022-12-03T18:32:56.424Z,100727.19
2022-12-03T18:35:24.950Z,100726.31
2022-12-03T18:37:53.382Z,100731.53
2022-12-03T18:40:26.974Z,100724.56
2022-12-03T18:42:56.778Z,100733.22
2022-12-03T18:45:25.282Z,100729.75
2022-12-03T18:47:54.715Z,100722.00
2022-12-03T18:50:24.352Z,100722.00
2022-12-03T18:52:52.911Z,100738.41
2022-12-03T18:55:22.690Z,100730.63
2022-12-03T18:57:51.257Z,100735.81
2022-12-03T19:00:20.324Z,100731.47
2022-12-03T19:03:04.855Z,100726.28
2022-12-03T19:05:36.538Z,100724.56
2022-12-03T19:08:12.580Z,100721.09
2022-12-03T19:10:41.809Z,100717.66
2022-12-03T19:13:10.331Z,100723.69
2022-12-03T19:15:39.852Z,100721.09
2022-12-03T19:18:08.351Z,100726.28
2022-12-03T19:20:41.812Z,100728.88
2022-12-03T19:23:10.464Z,100724.53
2022-12-03T19:25:38.960Z,100720.22
2022-12-03T19:28:07.581Z,100719.34
2022-12-03T19:30:36.087Z,100729.75
2022-12-03T19:33:04.638Z,100727.16
2022-12-03T19:35:33.541Z,100721.06
2022-12-03T19:38:03.133Z,100712.44
2022-12-03T19:40:32.080Z,100712.44
2022-12-03T19:43:00.807Z,100718.50
2022-12-03T19:45:29.313Z,100721.06
2022-12-03T19:47:57.854Z,100723.66
2022-12-03T19:50:26.080Z,100723.66
2022-12-03T19:52:54.622Z,100717.63
2022-12-03T19:55:24.168Z,100719.34
2022-12-03T19:57:52.693Z,100716.75
2022-12-03T20:00:21.352Z,100715.91
2022-12-03T20:02:50.832Z,100713.31
2022-12-03T20:05:19.557Z,100721.09
2022-12-03T20:07:48.075Z,100715.91
2022-12-03T20:10:16.679Z,100720.22
2022-12-03T20:12:46.413Z,100714.16
2022-12-03T20:15:15.199Z,100712.44
2022-12-03T20:17:43.791Z,100713.31
2022-12-03T20:20:12.977Z,100713.31
2022-12-03T20:22:41.458Z,100709.84
2022-12-03T20:25:10.574Z,100708.97
2022-12-03T20:27:39.267Z,100710.72
2022-12-03T20:30:11.287Z,100708.13
2022-12-03T20:32:45.025Z,100711.56
2022-12-03T20:35:13.745Z,100713.31
2022-12-03T20:37:42.067Z,100705.53
2022-12-03T20:40:11.576Z,100702.91
2022-12-03T20:42:40.071Z,100704.69
2022-12-03T20:45:11.580Z,100702.94
2022-12-03T20:47:40.188Z,100697.75
2022-12-03T20:50:09.503Z,100695.16
2022-12-03T20:52:38.163Z,100689.97
2022-12-03T20:55:07.206Z,100693.44
2022-12-03T20:57:36.522Z,100684.78
2022-12-03T21:00:06.319Z,100681.34
2022-12-03T21:02:35.969Z,100685.66
2022-12-03T21:05:04.396Z,100693.44
2022-12-03T21:07:33.069Z,100684.81
2022-12-03T21:10:01.579Z,100689.13
2022-12-03T21:12:30.089Z,100686.53
2022-12-03T21:14:58.593Z,100685.69
2022-12-03T21:17:27.173Z,100695.19
2022-12-03T21:19:57.197Z,100678.72
2022-12-03T21:22:26.127Z,100690.00
2022-12-03T21:24:54.597Z,100679.63
2022-12-03T21:27:23.110Z,100683.06
2022-12-03T21:29:51.408Z,100684.81
2022-12-03T21:32:20.343Z,100684.81
2022-12-03T21:34:48.820Z,100686.53
2022-12-03T21:37:18.449Z,100674.44
2022-12-03T21:39:46.962Z,100673.53
2022-12-03T21:42:34.859Z,100670.09
2022-12-03T21:45:04.299Z,100670.97
2022-12-03T21:47:37.334Z,100674.44
2022-12-03T21:50:08.471Z,100679.63
2022-12-03T21:52:38.099Z,100677.88
2022-12-03T21:55:07.590Z,100674.44
2022-12-03T21:57:37.207Z,100669.25
2022-12-03T22:00:08.554Z,100672.69
2022-12-03T22:02:40.105Z,100670.94
2022-12-03T22:05:09.766Z,100679.56
2022-12-03T22:07:41.003Z,100677.00
2022-12-03T22:10:12.315Z,100676.97
2022-12-03T22:12:41.908Z,100686.50
2022-12-03T22:15:18.200Z,100680.44
2022-12-03T22:17:49.898Z,100676.13
2022-12-03T22:20:18.379Z,100684.75
2022-12-03T22:22:48.018Z,100676.97
2022-12-03T22:25:17.807Z,100682.16
2022-12-03T22:27:46.043Z,100677.88
2022-12-03T22:30:14.926Z,100674.38
2022-12-03T22:32:43.452Z,100683.91
2022-12-03T22:35:11.947Z,100684.75
2022-12-03T22:37:40.163Z,100680.44
2022-12-03T22:40:10.893Z,100674.38
2022-12-03T22:42:39.088Z,100669.19
2022-12-03T22:45:08.813Z,100669.19
2022-12-03T22:47:37.092Z,100667.47
2022-12-03T22:50:06.368Z,100664.00
2022-12-03T22:52:34.979Z,100670.06
2022-12-03T22:55:03.292Z,100670.94
2022-12-03T22:57:33.019Z,100669.16
2022-12-03T23:00:01.610Z,100666.56
2022-12-03T23:02:29.854Z,100665.72
2022-12-03T23:04:58.382Z,100665.72
2022-12-03T23:07:26.971Z,100663.97
2022-12-03T23:09:55.760Z,100660.50
2022-12-03T23:12:24.475Z,100656.19
2022-12-03T23:14:55.750Z,100650.16
2022-12-03T23:17:24.316Z,100643.22
2022-12-03T23:19:53.395Z,100631.97
2022-12-03T23:22:22.146Z,100630.25
2022-12-03T23:24:50.654Z,100621.59
2022-12-03T23:27:19.199Z,100619.84
2022-12-03T23:29:47.887Z,100615.53
2022-12-03T23:32:17.502Z,100617.28
2022-12-03T23:34:46.127Z,100603.44
2022-12-03T23:37:14.411Z,100615.53
2022-12-03T23:39:42.898Z,100618.13
2022-12-03T23:42:11.395Z,100634.56
2022-12-03T23:44:39.936Z,100631.97
2022-12-03T23:47:08.459Z,100633.69
2022-12-03T23:49:38.240Z,100635.44
2022-12-03T23:52:06.810Z,100634.56
2022-12-03T23:54:35.355Z,100626.78
2022-12-03T23:57:03.899Z,100622.44
2022-12-03T23:59:32.473Z,100619.00
